Pine City, Arkansas
Current Conditions -  °F | °C
As of 8:55 PM on Saturday 25 Oct 2014 (Local Time) from KSGT Reporting Station
Clear Clear  
Wind Chill: 68°   Ceiling: Unl
Heat Index: 68°   Visibility: 10mi
Dew Point: 63°   Wind: 9mph
Humidity: 83%   Direction: 200°SSW
Pressure: 30.04"   Gusts: NA
Location:  34.5919°N, 91.1409°W
Report Text: KSGT 260155Z AUTO 20008KT 10SM CLR 20/17 A3004 RMK AO1
Loading
Personal Weather Stations






























Interactive Weather Map
Tropical Storm Tracking
New forecast layout! Learn more

10-Day Weather Forecast

Advertisements
Track Severe Weather on mobile